Gorch Fock — DRAX — position and weather

sailwx.info

Track history (hours):
 
Tides and Currents Weather Stations Pressure Air Temp Water Temp Dewpoint Dewpoint Depression Visibility Wind Speed Wind Dir Waves Ship Positions

Gorch Fock (Germany)

Ship's website: http://www.marine.de/01DB070000000001/CurrentBaseLink/W2698K4S188INFODE

Last reported at 2015-Aug-01 09:34 UTC. Time now 2015-Aug-01 09:44 UTC.
Position N 54°25' E 010°13'.

Length 89 m; draft 5.4 m.

Type: Sailing vessel. MMSI: 211210280.

Date/timePositionNaut miles runAvg speedWind from/ knotsBaromVisibWave heightAir tempDewpointWater temp
2015-Aug-01 09:34N 54°25' E 010°13'3 3.0
2015-Aug-01 08:34N 54°22' E 010°11'2 1.7
2015-Aug-01 07:32N 54°21' E 010°09'0 0.0
2015-Aug-01 06:26N 54°21' E 010°09'0 0.0
2015-Aug-01 05:32N 54°21' E 010°09'0 0.0
2015-Aug-01 04:32N 54°21' E 010°09'0 0.0
2015-Aug-01 03:32N 54°21' E 010°09'0 0.0
2015-Aug-01 02:32N 54°21' E 010°09'0 0.0
2015-Aug-01 01:32N 54°21' E 010°09'0 0.0
2015-Aug-01 00:32N 54°21' E 010°09'0 0.0
2015-Jul-31 23:32N 54°21' E 010°09'0 0.0
2015-Jul-31 22:32N 54°21' E 010°09'0 0.0
2015-Jul-31 21:32N 54°21' E 010°09'0 0.0
2015-Jul-31 20:32N 54°21' E 010°09'0 0.0
2015-Jul-31 19:32N 54°21' E 010°09'0 0.0
2015-Jul-31 18:32N 54°21' E 010°09'3 2.7
2015-Jul-31 17:33N 54°23' E 010°12'10 9.5
2015-Jul-31 16:33N 54°33' E 010°15'1010.1
2015-Jul-31 15:33N 54°41' E 010°07'7 7.4
2015-Jul-31 14:34N 54°48' E 009°60'  
2015-Jul-27 13:33N 54°49' E 009°56'9 8.9
2015-Jul-27 12:33N 54°43' E 010°07'5 5.3
2015-Jul-27 11:34N 54°38' E 010°11'5 5.2
2015-Jul-27 10:34N 54°34' E 010°16'5 5.4
2015-Jul-27 09:34N 54°28' E 010°16'6 5.5
2015-Jul-27 08:34N 54°23' E 010°12'3 2.7
2015-Jul-27 07:28N 54°21' E 010°09'0 0.0
2015-Jul-27 06:28N 54°21' E 010°09'  
Track history (hours):
 
Tides and Currents Weather Stations Pressure Air Temp Water Temp Dewpoint Dewpoint Depression Visibility Wind Speed Wind Dir Waves Ship Positions

Gorch Fock (Germany)

Ship's website: http://www.marine.de/01DB070000000001/CurrentBaseLink/W2698K4S188INFODE

Last reported at 2015-Aug-01 09:34 UTC. Time now 2015-Aug-01 09:44 UTC.
Position N 54°25' E 010°13'.

Length 89 m; draft 5.4 m.

Type: Sailing vessel. MMSI: 211210280.

Date/timePositionNaut miles runAvg speedWind from/ knotsBaromVisibWave heightAir tempDewpointWater temp
2015-Aug-01 09:34N 54°25' E 010°13'3 3.0
2015-Aug-01 08:34N 54°22' E 010°11'2 1.7
2015-Aug-01 07:32N 54°21' E 010°09'0 0.0
2015-Aug-01 06:26N 54°21' E 010°09'0 0.0
2015-Aug-01 05:32N 54°21' E 010°09'0 0.0
2015-Aug-01 04:32N 54°21' E 010°09'0 0.0
2015-Aug-01 03:32N 54°21' E 010°09'0 0.0
2015-Aug-01 02:32N 54°21' E 010°09'0 0.0
2015-Aug-01 01:32N 54°21' E 010°09'0 0.0
2015-Aug-01 00:32N 54°21' E 010°09'0 0.0
2015-Jul-31 23:32N 54°21' E 010°09'0 0.0
2015-Jul-31 22:32N 54°21' E 010°09'0 0.0
2015-Jul-31 21:32N 54°21' E 010°09'0 0.0
2015-Jul-31 20:32N 54°21' E 010°09'0 0.0
2015-Jul-31 19:32N 54°21' E 010°09'0 0.0
2015-Jul-31 18:32N 54°21' E 010°09'3 2.7
2015-Jul-31 17:33N 54°23' E 010°12'10 9.5
2015-Jul-31 16:33N 54°33' E 010°15'1010.1
2015-Jul-31 15:33N 54°41' E 010°07'7 7.4
2015-Jul-31 14:34N 54°48' E 009°60'  
2015-Jul-27 13:33N 54°49' E 009°56'9 8.9
2015-Jul-27 12:33N 54°43' E 010°07'5 5.3
2015-Jul-27 11:34N 54°38' E 010°11'5 5.2
2015-Jul-27 10:34N 54°34' E 010°16'5 5.4
2015-Jul-27 09:34N 54°28' E 010°16'6 5.5
2015-Jul-27 08:34N 54°23' E 010°12'3 2.7
2015-Jul-27 07:28N 54°21' E 010°09'0 0.0
2015-Jul-27 06:28N 54°21' E 010°09'  

Dump ship's entire track history